KPIE/PIE METAR and TAF weather

Enter ICAO airport designator
Station Type Date Time Source
KPIE METAR 2021/04/13 21:53 UTC NOAA

KPIE 132153Z 28009KT 10SM CLR 28/17 A3001 RMK AO2 SLP163 T02830167


Station Type Date Time Source
KPIE Decoded METAR 2021/04/13 21:53 UTC NOAA

ST PETERSBURG/CLEARWATER, FL, United States (KPIE) 27-55N 82-41W 4M
Apr 13, 2021 - 05:53 PM EDT / 2021.04.13 2153 UTC
Wind: from the W (280 degrees) at 10 MPH (9 KT):0
Visibility: 10 mile(s):0
Sky conditions: clear
Temperature: 82.9 F (28.3 C)
Dew Point: 62.1 F (16.7 C)
Relative Humidity: 49%
Pressure (altimeter): 30.01 in. Hg (1016 hPa)
ob: KPIE 132153Z 28009KT 10SM CLR 28/17 A3001 RMK AO2 SLP163 T02830167
cycle: 22

Station Type Date Time Source
KPIE TAF 2021/04/13 18:21 UTC NOAA

TAF KPIE 131720Z 1318/1418 07006KT P6SM SKC
FM132000 31009KT P6SM FEW250
FM140400 11005KT P6SM SCT150 BKN250
FM141300 15010KT P6SM BKN150

Example: see airport list